Time;durP1;ratioP1;P1;durP2;ratioP2;P2;SDS_P1;SDS_P2;PMS_P1;PMS_P2;Temp;Humidity;BMP_temperature;BMP_pressure;BME280_temperature;BME280_humidity;BME280_pressure;Samples;Min_cycle;Max_cycle;Signal;HPM_P1;HPM_P2
2021/10/12 00:02:27;;;;;;;7.40;3.00;;;10.40;99.90;;;8.90;100.00;102042.88;2568122;30;137377;-39
2021/10/12 00:04:57;;;;;;;7.22;2.95;;;10.40;99.90;;;8.91;100.00;102050.91;2570280;30;138300;-39
2021/10/12 00:07:28;;;;;;;8.95;2.97;;;10.40;99.90;;;8.91;100.00;102052.75;2568411;30;137625;-39
2021/10/12 00:09:56;;;;;;;6.80;2.80;;;10.40;99.90;;;8.89;100.00;102041.19;2569754;30;137256;-39
2021/10/12 00:12:23;;;;;;;6.53;2.70;;;10.40;99.90;;;8.88;100.00;102032.16;2569144;30;136832;-39
2021/10/12 00:14:51;;;;;;;8.52;3.20;;;10.40;99.90;;;8.94;100.00;102035.25;2567353;30;138409;-39
2021/10/12 00:17:18;;;;;;;5.72;2.47;;;10.40;99.90;;;8.94;100.00;102033.34;2569561;30;136883;-39
2021/10/12 00:19:46;;;;;;;6.40;2.55;;;10.40;99.90;;;8.96;100.00;102036.75;2570522;30;137085;-39
2021/10/12 00:22:13;;;;;;;;;;;10.50;99.90;;;8.99;100.00;102030.13;2569248;30;138222;-39
2021/10/12 00:24:43;;;;;;;6.05;2.80;;;10.50;99.90;;;9.02;100.00;102027.06;2568231;30;138321;-39
2021/10/12 00:27:10;;;;;;;6.50;2.40;;;10.50;99.90;;;8.96;100.00;102020.41;2569585;30;137381;-39
2021/10/12 00:29:38;;;;;;;6.65;2.35;;;10.50;99.90;;;9.00;100.00;102037.28;2568420;30;138595;-39
2021/10/12 00:32:06;;;;;;;9.02;2.80;;;10.50;99.90;;;8.97;100.00;102027.56;2566901;30;137010;-39
2021/10/12 00:34:36;;;;;;;6.15;2.67;;;10.50;99.90;;;8.99;100.00;102033.69;2568686;30;137672;-39
2021/10/12 00:37:04;;;;;;;6.95;2.63;;;10.50;99.90;;;9.02;100.00;102030.63;2566502;30;137002;-39
2021/10/12 00:39:31;;;;;;;8.38;2.70;;;10.50;99.90;;;9.02;100.00;102030.63;2569584;30;138224;-39
2021/10/12 00:41:59;;;;;;;6.32;2.60;;;10.50;99.90;;;9.07;100.00;102021.94;2570259;30;136714;-39
2021/10/12 00:44:27;;;;;;;5.63;2.58;;;10.50;99.90;;;9.04;100.00;102022.28;2568900;30;137440;-39
2021/10/12 00:46:55;;;;;;;8.05;2.80;;;10.50;99.90;;;9.03;100.00;102020.59;2567552;30;136822;-39
2021/10/12 00:49:23;;;;;;;5.53;2.70;;;10.60;99.90;;;9.04;100.00;102027.72;2567931;30;138083;-39
2021/10/12 00:51:53;;;;;;;8.40;2.70;;;10.60;99.90;;;9.02;100.00;102021.59;2569669;30;137136;-39
2021/10/12 00:54:21;;;;;;;8.18;3.00;;;10.50;99.90;;;9.01;100.00;102020.75;2569524;30;137373;-38
2021/10/12 00:56:52;;;;;;;9.80;2.50;;;10.50;99.90;;;9.02;100.00;102018.88;2567871;30;137536;-39
2021/10/12 00:59:19;;;;;;;8.43;2.60;;;10.50;99.90;;;9.04;100.00;102009.53;2570408;30;137917;-39
2021/10/12 01:01:47;;;;;;;6.65;2.63;;;10.50;99.90;;;9.03;100.00;102010.56;2567639;30;138393;-39
2021/10/12 01:04:15;;;;;;;6.25;2.35;;;10.50;99.90;;;9.06;100.00;101998.47;2569342;30;139349;-39
2021/10/12 01:06:43;;;;;;;9.45;2.72;;;10.60;99.90;;;9.04;100.00;101989.63;2569352;30;138193;-39
2021/10/12 01:09:10;;;;;;;;;;;10.60;99.90;;;9.04;100.00;101995.94;2567363;30;137480;-39
2021/10/12 01:11:38;;;;;;;5.15;2.42;;;10.60;99.90;;;9.04;100.00;102001.38;2568535;30;137381;-39
2021/10/12 01:14:05;;;;;;;;;;;10.50;99.90;;;9.09;100.00;101998.09;2569262;30;139487;-39
2021/10/12 01:16:33;;;;;;;8.45;2.40;;;10.60;99.90;;;9.09;100.00;101994.56;2569240;30;136856;-39
2021/10/12 01:19:07;;;;;;;6.13;2.22;;;10.60;99.90;;;9.13;100.00;101987.72;2569591;30;137519;-39
2021/10/12 01:21:45;;;;;;;7.70;2.97;;;10.60;99.90;;;9.11;100.00;101981.59;2568878;30;137103;-39
2021/10/12 01:24:15;;;;;;;5.10;2.30;;;10.60;99.90;;;9.13;100.00;101983.13;2566571;30;137444;-39
2021/10/12 01:26:45;;;;;;;9.15;2.63;;;10.60;99.90;;;9.17;100.00;101972.72;2568986;30;137051;-39
2021/10/12 01:29:15;;;;;;;8.25;2.60;;;10.60;99.90;;;9.16;100.00;101971.91;2568156;30;138696;-39
2021/10/12 01:31:43;;;;;;;6.85;2.67;;;10.70;99.90;;;9.18;100.00;101969.00;2570254;30;136880;-39
2021/10/12 01:34:20;;;;;;;5.78;2.90;;;10.70;99.90;;;9.18;100.00;101969.00;2568883;30;138730;-39
2021/10/12 01:36:49;;;;;;;6.82;2.60;;;10.70;99.90;;;9.17;100.00;101973.59;2570977;30;136755;-39
2021/10/12 01:39:20;;;;;;;7.57;2.90;;;10.70;99.90;;;9.15;100.00;101972.06;2570285;30;138424;-39
2021/10/12 01:41:47;;;;;;;7.22;2.50;;;10.60;99.90;;;9.13;100.00;101968.66;2570510;30;137028;-39
2021/10/12 01:44:18;;;;;;;5.28;2.80;;;10.60;99.90;;;9.14;100.00;101973.09;2569367;30;137784;-39
2021/10/12 01:46:46;;;;;;;8.88;3.10;;;10.60;99.90;;;9.18;100.00;101964.41;2571609;30;137671;-39
2021/10/12 01:49:14;;;;;;;6.65;2.72;;;10.70;99.90;;;9.14;100.00;101963.03;2569515;30;138380;-39
